Flight Track Log - Related Links

Times and Time Zones

All times are in EDT time to prevent confusion due to time zone crossing. See the DAL1732 flight status page for this flight to view local times or setup timezone preferences in your user account.

Time Position Orientation Groundspeed Altitude Reporting Facility
EDT Latitude Longitude Course Direction KTS MPH feet Rate Location/Type
Thu 02:37:35 PM 33.6500 -84.4833 North 172 198 3,300  Level Atlanta TRACON
Thu 02:38:35 PM 33.6833 -84.5500 301° West 251 289 5,400 3,050 Climbing Atlanta TRACON
Thu 02:39:00 PM 33.8521 -84.1854 320° Northwest  Level FlightAware Approximate
Thu 02:39:35 PM 33.7500 -84.5833 337° Northwest 263 303 9,400  Level Atlanta TRACON
Thu 02:40:00 PM 33.9573 -84.2667 North  Level FlightAware Approximate
Thu 02:41:00 PM 34.0868 -84.2667 North  Level FlightAware Approximate
Thu 02:41:44 PM 33.8853 -84.4742 34° Northeast 285 328 11,900  Level Atlanta Center
Thu 02:42:00 PM 34.2162 -84.2667 North  Level FlightAware Approximate
Thu 02:43:44 PM 34.0506 -84.3647 29° Northeast 336 387 17,100  Level Atlanta Center
Thu 02:44:44 PM 34.1572 -84.3275 16° North 373 429 20,100 2,000 Climbing Atlanta Center
Thu 02:45:44 PM 34.2636 -84.2925 15° North 393 452 21,100 1,550 Climbing Atlanta Center
Thu 02:46:44 PM 34.3825 -84.2603 13° North 416 479 23,200 2,300 Climbing Atlanta Center
Thu 02:47:44 PM 34.4953 -84.2328 11° North 421 484 25,700 1,900 Climbing Atlanta Center
Thu 02:48:44 PM 34.6164 -84.2053 11° North 421 484 27,000 950 Climbing Atlanta Center
Thu 02:49:44 PM 34.7375 -84.1803 10° North 433 498 27,600 700 Climbing Atlanta Center
Thu 02:50:44 PM 34.8669 -84.1475 12° North 448 516 28,400 1,500 Climbing Atlanta Center
Thu 02:51:44 PM 35.0006 -84.1147 11° North 472 543 30,600 2,200 Climbing Atlanta Center
Thu 02:52:44 PM 35.1236 -84.0869 10° North 467 537 32,800 1,400 Climbing Atlanta Center
Thu 02:53:44 PM 35.2489 -84.0567 11° North 457 526 33,400 700 Climbing Atlanta Center
Thu 02:54:44 PM 35.3761 -84.0261 11° North 457 526 34,200 800 Climbing Atlanta Center
Thu 02:55:44 PM 35.5056 -83.9928 12° North 457 526 35,000 1,150 Climbing Atlanta Center
Thu 02:56:44 PM 35.6347 -83.9622 11° North 469 540 36,500 900 Climbing Atlanta Center
Thu 02:57:44 PM 35.7642 -83.9286 12° North 469 540 36,800 250 Climbing Atlanta Center
Thu 02:58:44 PM 35.8956 -83.8928 12° North 469 540 37,000 31 Climbing Atlanta Center
Thu 03:00:59 PM 36.1811 -83.7208 26° Northeast 488 562 36,900  Descending Indianapolis Center
Thu 03:02:01 PM 36.3014 -83.6447 27° Northeast 487 560 37,000 48 Climbing Indianapolis Center
Thu 03:03:03 PM 36.4222 -83.5672 27° Northeast 488 562 37,000  Level Indianapolis Center
Thu 03:04:05 PM 36.5522 -83.4869 26° Northeast 493 567 37,000  Level Indianapolis Center
Thu 03:05:07 PM 36.6756 -83.4097 27° Northeast 492 566 37,000  Level Indianapolis Center
Thu 03:06:09 PM 36.8033 -83.3444 22° Northeast 487 560 37,000  Level Indianapolis Center
Thu 03:07:11 PM 36.9383 -83.3025 14° North 491 565 37,000  Level Indianapolis Center
Thu 03:08:13 PM 37.0958 -83.2519 14° North 492 566 37,000  Level Indianapolis Center
Thu 03:09:15 PM 37.2306 -83.2086 14° North 493 567 37,000  Level Indianapolis Center
Thu 03:10:17 PM 37.3653 -83.1658 14° North 494 568 37,000  Level Indianapolis Center
Thu 03:11:19 PM 37.5014 -83.1228 14° North 499 574 37,000  Level Indianapolis Center
Thu 03:12:21 PM 37.6364 -83.0772 15° North 500 575 37,000  Level Indianapolis Center
Thu 03:13:23 PM 37.7708 -83.0336 14° North 497 572 37,000  Level Indianapolis Center
Thu 03:14:25 PM 37.8986 -82.9703 21° North 486 559 37,000  Level Indianapolis Center
Thu 03:15:27 PM 38.0492 -82.8889 23° Northeast 498 573 37,000  Level Indianapolis Center
Thu 03:16:29 PM 38.1800 -82.8125 25° Northeast 512 589 37,000 -97 Level Indianapolis Center
Thu 03:17:31 PM 38.3106 -82.7475 21° North 503 579 36,800 -480 Descending Indianapolis Center
Thu 03:18:34 PM 38.4500 -82.7400 North 495 570 36,000 -1,056 Descending Indianapolis Center
Thu 03:19:36 PM 38.5886 -82.7297 North 497 572 34,600 -968 Descending Indianapolis Center
Thu 03:20:38 PM 38.7333 -82.6872 13° North 492 566 34,000 -290 Descending Indianapolis Center
Thu 03:21:40 PM 38.8658 -82.6456 14° North 488 562 34,000  Level Indianapolis Center
Thu 03:22:42 PM 39.0008 -82.6031 14° North 495 570 34,000  Level Indianapolis Center
Thu 03:23:44 PM 39.1347 -82.5606 14° North 494 568 34,000 -435 Level Indianapolis Center
Thu 03:24:46 PM 39.2928 -82.5081 14° North 506 582 33,100 -1,645 Descending Indianapolis Center
Thu 03:25:48 PM 39.4358 -82.4597 15° North 503 579 30,600 -2,323 Descending Indianapolis Center
Thu 03:26:50 PM 39.5650 -82.4186 14° North 502 578 28,300 -2,323 Descending Indianapolis Center
Thu 03:27:52 PM 39.7003 -82.3728 15° North 500 575 25,800 -2,177 Descending Indianapolis Center
Thu 03:28:54 PM 39.8353 -82.3272 15° North 498 573 23,800 -1,403 Descending Indianapolis Center
Thu 03:29:56 PM 39.9883 -82.2781 14° North 485 558 22,900 -384 Descending Indianapolis Center
Thu 03:30:59 PM 40.1208 -82.2367 13° North 486 559 23,000 -629 Climbing Indianapolis Center
Thu 03:32:00 PM 40.2494 -82.1947 14° North 483 556 21,600 -1,659 Descending Indianapolis Center
Thu 03:33:02 PM 40.3786 -82.1531 14° North 476 548 19,600 -1,984 Descending Indianapolis Center
Thu 03:34:04 PM 40.4931 -82.0911 22° Northeast 446 513 17,500 -1,935 Descending Indianapolis Center
Thu 03:35:06 PM 40.6064 -81.9792 37° Northeast 433 498 15,600 -2,100 Descending Indianapolis Center
Thu 03:35:24 PM 40.6300 -81.9592 33° Northeast 431 496 14,700 -2,491 Descending Cleveland Center
Thu 03:35:59 PM 40.6892 -81.8975 38° Northeast 435 501 13,400 -2,060 Descending Cleveland Center
Thu 03:36:31 PM 40.7375 -81.8519 36° Northeast 424 488 12,400 -2,400 Descending Cleveland Center
Thu 03:36:59 PM 40.7797 -81.8089 38° Northeast 423 487 11,000 -2,361 Descending Cleveland Center
Thu 03:37:32 PM 40.8261 -81.7658 35° Northeast 386 444 10,000 -1,000 Descending Cleveland Center
Thu 03:37:59 PM 40.8619 -81.7253 41° Northeast 393 452 10,000  Level Cleveland Center
Thu 03:38:32 PM 40.9019 -81.6875 36° Northeast 317 365 10,000  Level Cleveland Center
Thu 03:38:59 PM 40.9394 -81.6772 12° North 349 402 10,000  Level Cleveland Center
Thu 03:39:33 PM 40.9744 -81.7161 320° Northwest 285 328 10,000  Level Cleveland Center
Thu 03:39:59 PM 41.0014 -81.7414 325° Northwest 252 290 10,000  Level Cleveland Center
Thu 03:40:34 PM 41.0344 -81.7833 316° Northwest 286 329 10,000 -100 Level Cleveland Center
Thu 03:40:59 PM 41.0569 -81.8031 327° Northwest 257 296 9,900 -1,770 Descending Cleveland Center
Thu 03:41:35 PM 41.0897 -81.8586 308° West 281 323 8,200 -2,400 Descending Cleveland Center
Thu 03:41:59 PM 41.1019 -81.8836 303° West 269 310 7,500 -1,180 Descending Cleveland Center
Thu 03:42:36 PM 41.1222 -81.9447 294° West 247 284 7,000 -500 Descending Cleveland Center
Thu 03:42:59 PM 41.1325 -81.9642 305° West 258 297 7,000 -100 Level Cleveland Center
Thu 03:43:36 PM 41.1483 -82.0114 294° West 186 214 6,900 -500 Descending Cleveland Center
Thu 03:43:59 PM 41.1544 -82.0308 293° West 218 251 6,500 -984 Descending Cleveland Center
Thu 03:44:37 PM 41.1811 -82.0731 310° West 187 215 5,900 -900 Descending Cleveland Center
Thu 03:44:59 PM 41.1914 -82.0814 329° Northwest 189 217 5,600 -1,082 Descending Cleveland Center
Thu 03:45:38 PM 41.2264 -82.1044 334° Northwest 197 227 4,800 -1,080 Descending Cleveland Center
Thu 03:46:39 PM 41.2769 -82.0642 31° Northeast 220 253 3,800 -984 Descending Cleveland Center

Login

Don't have an account? Register now (free) for customized features, flight alerts, and more!